Abbeville, Louisiana
Current Conditions -  °F | °C
As of 1:10 PM on Thursday 30 Oct 2014 (Local Time) from KIYA Reporting Station
Clear Clear  
Wind Chill: 73°   Ceiling: Unl
Heat Index: 73°   Visibility: 10mi
Dew Point: 45°   Wind: 8mph
Humidity: 36%   Direction: 360°N
Pressure: 30.1"   Gusts: NA
Location:  29.97°N, 92.13°W
Report Text: KIYA 301810Z AUTO 36007KT 10SM CLR 23/07 A3010 RMK AO2 T02300073
Loading
Personal Weather Stations






























Interactive Weather Map
Tropical Storm Tracking
New forecast layout! Learn more

10-Day Weather Forecast

Advertisements
Track Severe Weather on mobile